Time;durP1;ratioP1;P1;durP2;ratioP2;P2;SDS_P1;SDS_P2;PMS_P1;PMS_P2;Temp;Humidity;BMP_temperature;BMP_pressure;BME280_temperature;BME280_humidity;BME280_pressure;Samples;Min_cycle;Max_cycle;Signal;HPM_P1;HPM_P2
2021/08/25 00:00:29;;;;;;;14.13;9.73;;;;;;;21.25;42.56;93812.28;4972838;28;20287;-75
2021/08/25 00:02:54;;;;;;;13.35;9.57;;;;;;;21.18;42.81;93812.25;4976215;28;20038;-75
2021/08/25 00:05:20;;;;;;;14.02;10.20;;;;;;;21.15;43.03;93807.59;4977292;28;20568;-75
2021/08/25 00:07:45;;;;;;;12.38;10.23;;;;;;;21.21;42.78;93816.91;4975867;28;20038;-75
2021/08/25 00:10:11;;;;;;;10.38;9.30;;;;;;;21.21;43.22;93814.22;4975719;28;20554;-75
2021/08/25 00:12:37;;;;;;;11.80;10.50;;;;;;;21.02;43.21;93792.88;4977256;28;20054;-75
2021/08/25 00:15:05;;;;;;;12.68;10.45;;;;;;;21.07;43.51;93811.41;4989455;28;20034;-75
2021/08/25 00:17:31;;;;;;;15.35;10.15;;;;;;;21.04;43.32;93804.06;4975546;28;20040;-76
2021/08/25 00:19:56;;;;;;;14.43;10.45;;;;;;;20.98;43.82;93819.09;4974877;28;20034;-75
2021/08/25 00:22:22;;;;;;;11.13;9.98;;;;;;;20.95;43.85;93809.81;4973413;28;20026;-76
2021/08/25 00:24:48;;;;;;;18.40;11.88;;;;;;;21.10;44.39;93821.50;4972137;28;20073;-75
2021/08/25 00:27:13;;;;;;;14.70;11.43;;;;;;;21.02;44.74;93820.66;4976622;28;20038;-76
2021/08/25 00:29:39;;;;;;;11.93;10.57;;;;;;;21.06;44.91;93820.69;4976637;28;20483;-75
2021/08/25 00:32:04;;;;;;;12.48;11.07;;;;;;;21.07;44.85;93816.06;4974656;28;20678;-75
2021/08/25 00:34:30;;;;;;;12.35;11.10;;;;;;;21.18;44.63;93817.66;4977062;28;20293;-74
2021/08/25 00:36:55;;;;;;;14.50;10.57;;;;;;;21.19;44.73;93813.81;4969918;28;20154;-75
2021/08/25 00:39:20;;;;;;;14.93;11.57;;;;;;;21.27;45.22;93809.97;4977641;28;20648;-76
2021/08/25 00:41:46;;;;;;;13.05;11.65;;;;;;;21.36;45.15;93806.94;4976356;28;20130;-74
2021/08/25 00:44:16;;;;;;;16.27;11.57;;;;;;;21.29;45.14;93809.59;4974132;28;20555;-75
2021/08/25 00:46:43;;;;;;;15.98;13.07;;;;;;;21.12;45.57;93781.31;4974191;28;20040;-76
2021/08/25 00:49:10;;;;;;;15.02;13.35;;;;;;;21.29;45.70;93807.66;4974255;28;20041;-76
2021/08/25 00:51:35;;;;;;;15.35;13.75;;;;;;;21.49;45.70;93799.22;4970771;28;20684;-75
2021/08/25 00:54:01;;;;;;;15.65;13.27;;;;;;;21.66;46.01;93804.69;4975471;28;20035;-74
2021/08/25 00:56:26;;;;;;;17.10;14.68;;;;;;;21.53;45.51;93795.38;4977067;28;20050;-74
2021/08/25 00:58:53;;;;;;;17.50;15.27;;;;;;;21.60;45.42;93810.88;4976152;28;20022;-75
2021/08/25 01:01:31;;;;;;;20.65;16.58;;;;;;;21.45;45.45;93791.88;4968632;28;20173;-75
2021/08/25 01:04:08;;;;;;;16.85;15.05;;;;;;;21.50;46.53;93800.78;4972585;28;20133;-75
2021/08/25 01:06:35;;;;;;;22.83;15.82;;;;;;;21.38;47.00;93797.25;4973306;28;20097;-74
2021/08/25 01:09:02;;;;;;;17.40;14.57;;;;;;;21.40;46.83;93781.44;4970483;28;20137;-75
2021/08/25 01:11:30;;;;;;;15.73;14.00;;;;;;;21.36;46.50;93772.50;4966304;28;20444;-76
2021/08/25 01:13:55;;;;;;;19.08;15.73;;;;;;;21.43;46.03;93796.88;4977682;28;20027;-75
2021/08/25 01:16:22;;;;;;;19.92;15.00;;;;;;;21.27;46.08;93772.09;4973427;28;20358;-76
2021/08/25 01:18:48;;;;;;;16.98;14.45;;;;;;;21.47;46.53;93780.66;4971368;28;20046;-76
2021/08/25 01:21:14;;;;;;;20.85;15.80;;;;;;;21.41;46.34;93768.69;4975264;28;20477;-76
2021/08/25 01:23:43;;;;;;;17.88;14.32;;;;;;;21.37;46.56;93765.94;4972249;28;20949;-74
2021/08/25 01:26:10;;;;;;;18.65;15.25;;;;;;;21.56;46.37;93761.41;4972859;28;20033;-74
2021/08/25 01:28:44;;;;;;;24.77;15.18;;;;;;;21.64;45.57;93757.53;4972663;28;20683;-74
2021/08/25 01:31:09;;;;;;;21.38;17.42;;;;;;;21.56;46.09;93756.00;4972064;28;20073;-75
2021/08/25 01:33:35;;;;;;;20.40;15.55;;;;;;;21.50;47.43;93743.97;4972940;28;20125;-75
2021/08/25 01:36:00;;;;;;;19.60;15.85;;;;;;;21.41;47.43;93726.13;4972057;28;20105;-75
2021/08/25 01:38:32;;;;;;;19.75;15.05;;;;;;;21.56;47.08;93751.31;4972275;28;20531;-75
2021/08/25 01:40:57;;;;;;;19.73;15.32;;;;;;;21.53;47.37;93741.25;4970200;28;20026;-75
2021/08/25 01:43:23;;;;;;;23.02;17.00;;;;;;;21.44;47.41;93743.56;4975067;28;20053;-74
2021/08/25 01:45:48;;;;;;;19.77;16.45;;;;;;;21.37;47.38;93709.13;4971528;28;20057;-75
2021/08/25 01:48:14;;;;;;;24.33;17.05;;;;;;;21.52;46.93;93718.06;4972276;28;20041;-76
2021/08/25 01:50:39;;;;;;;19.98;17.23;;;;;;;21.47;46.72;93710.31;4970576;28;20100;-75
2021/08/25 01:53:05;;;;;;;19.98;16.48;;;;;;;21.54;47.36;93720.38;4973606;28;20382;-75
2021/08/25 01:55:30;;;;;;;22.00;16.95;;;;;;;21.45;47.30;93702.59;4973134;28;20077;-74
2021/08/25 01:57:56;;;;;;;25.48;20.13;;;;;;;21.38;47.04;93702.56;4972545;28;20368;-75
2021/08/25 02:00:21;;;;;;;25.52;19.42;;;;;;;21.51;46.91;93702.22;4971055;28;20046;-76
2021/08/25 02:02:47;;;;;;;21.08;17.65;;;;;;;21.54;47.24;93694.09;4971770;28;20054;-75
2021/08/25 02:05:12;;;;;;;21.33;18.45;;;;;;;21.67;47.23;93710.75;4982557;28;20229;-75
2021/08/25 02:07:37;;;;;;;19.40;15.95;;;;;;;21.67;46.41;93697.22;4972091;28;20535;-77
2021/08/25 02:10:05;;;;;;;20.70;17.25;;;;;;;21.69;46.46;93693.00;4973144;28;20124;-74
2021/08/25 02:12:30;;;;;;;20.70;16.88;;;;;;;21.55;46.28;93684.09;4973507;28;20038;-75
2021/08/25 02:14:55;;;;;;;22.17;17.52;;;;;;;21.10;46.60;93629.50;4975132;28;20484;-74
2021/08/25 02:17:21;;;;;;;19.73;16.30;;;;;;;21.58;46.24;93686.00;4973609;28;20117;-76
2021/08/25 02:19:46;;;;;;;18.88;15.65;;;;;;;21.59;46.14;93685.63;4972071;28;20027;-76
2021/08/25 02:22:11;;;;;;;18.10;15.18;;;;;;;21.74;46.21;93694.53;4970393;28;20332;-75
2021/08/25 02:24:37;;;;;;;19.17;15.48;;;;;;;21.76;46.44;93698.38;4970564;28;20085;-76
2021/08/25 02:27:02;;;;;;;16.70;14.75;;;;;;;21.70;46.23;93691.06;4971169;28;20042;-75
2021/08/25 02:29:28;;;;;;;18.17;14.13;;;;;;;21.80;46.17;93709.97;4972359;28;20163;-74
2021/08/25 02:31:54;;;;;;;22.38;16.23;;;;;;;21.63;46.24;93693.75;4971609;28;20041;-75
2021/08/25 02:34:19;;;;;;;22.95;17.00;;;;;;;21.61;46.06;93709.63;4976326;28;20022;-75
2021/08/25 02:36:44;;;;;;;19.15;16.10;;;;;;;21.58;46.46;93710.38;4973361;28;20076;-74
2021/08/25 02:39:10;;;;;;;19.27;15.82;;;;;;;21.59;46.21;93684.84;4970573;28;20373;-75
2021/08/25 02:41:35;;;;;;;21.13;16.00;;;;;;;21.81;46.20;93725.06;4976750;28;20492;-75
2021/08/25 02:44:01;;;;;;;19.52;16.40;;;;;;;21.75;45.92;93733.97;4977361;28;20484;-74
2021/08/25 02:46:26;;;;;;;19.25;16.40;;;;;;;21.60;46.43;93733.19;4975334;28;20528;-75
2021/08/25 02:48:52;;;;;;;24.33;18.15;;;;;;;21.29;47.00;93710.28;4976710;28;20084;-74
2021/08/25 02:51:17;;;;;;;20.98;17.67;;;;;;;21.41;47.05;93744.34;4974986;28;20576;-75
2021/08/25 02:53:43;;;;;;;22.60;17.80;;;;;;;21.54;47.08;93774.50;4974478;28;20110;-76
2021/08/25 02:56:08;;;;;;;20.88;17.10;;;;;;;21.53;47.37;93772.94;4981416;28;20069;-75
2021/08/25 02:58:34;;;;;;;22.00;17.77;;;;;;;21.41;47.83;93765.97;4976651;28;20045;-75
2021/08/25 03:00:59;;;;;;;23.48;18.70;;;;;;;21.33;48.22;93759.75;4977617;28;20034;-75
2021/08/25 03:03:25;;;;;;;27.25;21.88;;;;;;;21.25;48.97;93781.75;4976127;28;20124;-75
2021/08/25 03:05:50;;;;;;;26.83;20.08;;;;;;;21.26;49.08;93780.59;4975420;28;20046;-74
2021/08/25 03:08:16;;;;;;;23.10;20.00;;;;;;;21.12;49.44;93767.78;4976763;28;20042;-75
2021/08/25 03:10:41;;;;;;;26.42;21.10;;;;;;;21.00;49.69;93770.84;4975502;28;20054;-74
2021/08/25 03:13:07;;;;;;;28.55;22.70;;;;;;;21.11;49.71;93790.59;4972477;28;20505;-74
2021/08/25 03:15:33;;;;;;;27.70;20.50;;;;;;;20.92;50.44;93761.16;4978444;28;20185;-75
2021/08/25 03:17:58;;;;;;;31.92;22.60;;;;;;;21.16;50.21;93787.53;4975407;28;20041;-75
2021/08/25 03:20:24;;;;;;;27.98;21.50;;;;;;;21.07;50.66;93778.22;4978677;28;20093;-74
2021/08/25 03:22:49;;;;;;;28.70;22.67;;;;;;;21.07;51.52;93780.91;4978140;28;20038;-75
2021/08/25 03:25:15;;;;;;;27.38;21.02;;;;;;;21.24;50.97;93783.69;4977565;28;20038;-75
2021/08/25 03:27:40;;;;;;;27.70;22.52;;;;;;;21.15;51.45;93785.19;4973766;28;20683;-75
2021/08/25 03:30:06;;;;;;;32.45;23.17;;;;;;;21.15;52.01;93780.56;4973832;28;20064;-74
2021/08/25 03:32:32;;;;;;;28.58;21.92;;;;;;;20.90;51.63;93747.22;4973803;28;20042;-75
2021/08/25 03:34:58;;;;;;;28.10;22.50;;;;;;;21.13;52.36;93785.56;4974300;28;20354;-76
2021/08/25 03:37:23;;;;;;;31.90;21.63;;;;;;;21.10;53.43;93788.25;4975600;28;20026;-75
2021/08/25 03:39:49;;;;;;;27.55;21.13;;;;;;;20.85;54.21;93780.00;4979078;28;20592;-75
2021/08/25 03:42:14;;;;;;;30.55;23.02;;;;;;;20.74;54.83;93765.66;4972497;28;20260;-75
2021/08/25 03:44:42;;;;;;;27.48;22.23;;;;;;;20.72;55.80;93781.47;4979342;28;20292;-75
2021/08/25 03:47:08;;;;;;;26.58;21.50;;;;;;;20.90;55.69;93783.16;4975541;28;20116;-76
2021/08/25 03:49:35;;;;;;;26.35;21.63;;;;;;;21.16;54.48;93782.13;4976717;28;20042;-75
2021/08/25 03:52:00;;;;;;;39.13;23.33;;;;;;;21.02;54.55;93768.53;4974671;28;20046;-75
2021/08/25 03:54:27;;;;;;;31.02;23.23;;;;;;;20.81;55.03;93774.59;4975479;28;20034;-74
2021/08/25 03:56:53;;;;;;;30.67;23.65;;;;;;;20.47;56.29;93760.50;4974993;28;20526;-75
2021/08/25 03:59:19;;;;;;;26.13;22.05;;;;;;;20.46;56.42;93769.75;4972103;28;20035;-75
2021/08/25 04:01:44;;;;;;;28.52;22.75;;;;;;;20.30;57.26;93776.56;4977362;28;20056;-74
2021/08/25 04:04:09;;;;;;;28.20;23.02;;;;;;;20.24;57.50;93770.72;4972229;28;20073;-77
2021/08/25 04:06:36;;;;;;;27.50;21.67;;;;;;;20.27;58.26;93770.00;4976399;28;20493;-76
2021/08/25 04:09:01;;;;;;;32.53;21.17;;;;;;;20.15;58.49;93772.94;4976648;28;20051;-76
2021/08/25 04:11:27;;;;;;;22.88;19.98;;;;;;;20.00;58.22;93749.69;4972073;28;20405;-75
2021/08/25 04:13:53;;;;;;;28.63;21.15;;;;;;;20.07;58.01;93750.53;4973911;28;20034;-76
2021/08/25 04:16:18;;;;;;;28.42;20.58;;;;;;;20.24;57.45;93751.84;4973204;28;20022;-75
2021/08/25 04:18:43;;;;;;;25.38;19.52;;;;;;;20.22;56.98;93746.03;4975571;28;20049;-75
2021/08/25 04:21:09;;;;;;;28.05;20.77;;;;;;;20.24;57.02;93749.13;4974647;28;20663;-76
2021/08/25 04:23:34;;;;;;;25.02;20.17;;;;;;;20.25;57.16;93758.78;4975299;28;20357;-74
2021/08/25 04:26:00;;;;;;;28.13;22.77;;;;;;;20.23;57.38;93754.94;4973373;28;20037;-75
2021/08/25 04:28:25;;;;;;;28.70;22.63;;;;;;;20.07;57.49;93730.88;4976905;28;20030;-75
2021/08/25 04:30:51;;;;;;;24.70;20.05;;;;;;;20.40;56.63;93749.63;4971698;28;20146;-75
2021/08/25 04:33:17;;;;;;;28.42;21.73;;;;;;;20.32;56.94;93760.78;4973885;28;20042;-75
2021/08/25 04:35:42;;;;;;;26.83;21.73;;;;;;;20.45;56.54;93741.19;4973013;28;20042;-75
2021/08/25 04:38:08;;;;;;;28.85;22.92;;;;;;;20.47;55.95;93755.09;4973198;28;20034;-74
2021/08/25 04:40:33;;;;;;;29.92;24.42;;;;;;;20.06;57.15;93738.19;4974995;28;20022;-76
2021/08/25 04:43:00;;;;;;;25.98;20.50;;;;;;;20.25;57.24;93750.69;4973817;28;20038;-77
2021/08/25 04:45:25;;;;;;;28.20;21.60;;;;;;;20.16;57.09;93747.50;4975167;28;20506;-74
2021/08/25 04:47:51;;;;;;;26.38;21.50;;;;;;;20.06;57.83;93738.19;4977197;28;20042;-75
2021/08/25 04:50:16;;;;;;;28.85;22.13;;;;;;;20.10;57.11;93724.69;4973663;28;20388;-74
2021/08/25 04:52:42;;;;;;;24.25;21.02;;;;;;;20.11;56.62;93734.34;4976701;28;20024;-75
2021/08/25 04:55:08;;;;;;;28.63;23.73;;;;;;;20.14;56.17;93739.03;4971685;28;20397;-75
2021/08/25 04:57:33;;;;;;;23.60;19.05;;;;;;;20.12;56.01;93733.22;4976883;28;20043;-75
2021/08/25 04:59:58;;;;;;;21.67;17.08;;;;;;;20.06;54.70;93715.81;4973347;28;20501;-75
2021/08/25 05:02:24;;;;;;;20.85;15.77;;;;;;;20.14;54.15;93728.97;4969386;28;20343;-74
2021/08/25 05:04:49;;;;;;;16.17;12.77;;;;;;;20.18;53.13;93731.75;4972429;28;20041;-75
2021/08/25 05:07:15;;;;;;;14.80;13.20;;;;;;;20.14;53.60;93731.69;4973915;28;20045;-75
2021/08/25 05:09:40;;;;;;;16.15;13.38;;;;;;;20.34;53.05;93732.22;4972183;28;20046;-76
2021/08/25 05:12:06;;;;;;;22.65;16.88;;;;;;;20.44;51.23;93719.94;4976229;28;20042;-77
2021/08/25 05:14:32;;;;;;;21.67;16.88;;;;;;;20.51;48.29;93715.38;4971622;28;20726;-75
2021/08/25 05:16:57;;;;;;;21.73;14.98;;;;;;;20.55;48.41;93707.28;4976527;28;20042;-75
2021/08/25 05:19:22;;;;;;;18.75;15.07;;;;;;;20.42;50.03;93723.03;4973321;28;20471;-74
2021/08/25 05:21:48;;;;;;;18.65;14.30;;;;;;;20.43;50.05;93732.69;4972884;28;20042;-74
2021/08/25 05:24:13;;;;;;;18.55;14.27;;;;;;;20.40;50.71;93733.44;4976182;28;20643;-75
2021/08/25 05:26:39;;;;;;;20.17;15.07;;;;;;;20.41;51.34;93726.88;4973441;28;20031;-76
2021/08/25 05:29:04;;;;;;;22.95;17.23;;;;;;;20.52;51.88;93738.53;4971496;28;20554;-75
2021/08/25 05:31:30;;;;;;;24.95;18.02;;;;;;;20.69;51.37;93736.28;4973179;28;20343;-75
2021/08/25 05:34:01;;;;;;;30.90;19.80;;;;;;;20.65;51.19;93724.69;4977210;28;20073;-75
2021/08/25 05:36:26;;;;;;;23.90;17.67;;;;;;;20.66;50.81;93720.84;4969206;28;20393;-75
2021/08/25 05:38:52;;;;;;;20.63;15.75;;;;;;;20.83;49.51;93731.72;4970686;28;20065;-74
2021/08/25 05:41:17;;;;;;;21.38;16.83;;;;;;;20.89;49.68;93724.84;4975420;28;20499;-75
2021/08/25 05:43:43;;;;;;;20.67;15.70;;;;;;;20.95;49.31;93730.66;4977658;28;20030;-74
2021/08/25 05:46:08;;;;;;;20.30;14.57;;;;;;;21.05;47.78;93734.53;4969736;28;20035;-75
2021/08/25 05:48:34;;;;;;;21.85;14.82;;;;;;;21.16;46.50;93738.84;4973411;28;20796;-74
2021/08/25 05:50:59;;;;;;;24.33;13.52;;;;;;;21.15;46.75;93731.88;4971234;28;20631;-75
2021/08/25 05:53:25;;;;;;;19.85;13.20;;;;;;;21.28;45.52;93746.59;4971132;28;21180;-75
2021/08/25 05:55:50;;;;;;;20.92;13.80;;;;;;;21.27;45.94;93738.84;4992953;28;20030;-75
2021/08/25 05:58:16;;;;;;;15.73;12.48;;;;;;;21.31;45.47;93740.44;4972388;28;20567;-75
2021/08/25 06:00:41;;;;;;;17.80;13.40;;;;;;;21.40;45.59;93748.97;4975193;28;20405;-74
2021/08/25 06:03:07;;;;;;;19.05;13.90;;;;;;;21.37;45.33;93719.97;4972826;28;20464;-76
2021/08/25 06:05:32;;;;;;;17.05;13.95;;;;;;;21.52;45.46;93741.63;4971477;28;20417;-76
2021/08/25 06:07:58;;;;;;;21.40;14.45;;;;;;;21.59;45.17;93738.97;4971517;28;20031;-75
2021/08/25 06:10:23;;;;;;;21.23;14.75;;;;;;;21.63;44.78;93728.94;4973912;28;20057;-75
2021/08/25 06:12:48;;;;;;;23.02;14.32;;;;;;;21.65;45.78;93721.22;4972381;28;20050;-75
2021/08/25 06:15:14;;;;;;;15.85;14.25;;;;;;;21.91;45.16;93733.59;4976472;28;20046;-75
2021/08/25 06:17:39;;;;;;;15.82;13.75;;;;;;;21.93;45.53;93729.34;4979398;28;20113;-74
2021/08/25 06:20:06;;;;;;;21.20;14.88;;;;;;;22.07;43.25;93721.22;4976454;28;20121;-76
2021/08/25 06:22:32;;;;;;;18.42;13.23;;;;;;;22.08;44.34;93711.94;4977408;28;20019;-75
2021/08/25 06:24:58;;;;;;;15.60;12.95;;;;;;;22.11;43.21;93713.84;4977537;28;20512;-75
2021/08/25 06:27:24;;;;;;;20.50;14.15;;;;;;;22.01;43.67;93700.31;4978402;28;20031;-74
2021/08/25 06:29:50;;;;;;;19.08;14.85;;;;;;;21.76;45.21;93703.03;4977471;28;20165;-75
2021/08/25 06:32:15;;;;;;;22.30;13.90;;;;;;;21.80;44.72;93695.69;4975783;28;20504;-75
2021/08/25 06:34:41;;;;;;;18.90;14.13;;;;;;;22.09;44.93;93707.28;4976483;28;20030;-74
2021/08/25 06:37:06;;;;;;;19.58;14.60;;;;;;;22.05;45.44;93699.16;4975550;28;20037;-75
2021/08/25 06:39:31;;;;;;;25.60;15.35;;;;;;;21.99;45.30;93714.25;4977317;28;20042;-75
2021/08/25 06:41:57;;;;;;;15.07;12.70;;;;;;;21.99;44.38;93703.44;4972024;28;20049;-76
2021/08/25 06:44:22;;;;;;;14.38;10.73;;;;;;;22.19;44.47;93701.84;4971620;28;20038;-75
2021/08/25 06:46:48;;;;;;;15.18;10.95;;;;;;;22.09;43.26;93708.06;4976696;28;20026;-75
2021/08/25 06:49:13;;;;;;;12.85;9.90;;;;;;;21.95;43.57;93686.38;4976627;28;20477;-75
2021/08/25 06:51:39;;;;;;;15.95;10.18;;;;;;;22.19;43.83;93677.47;4976895;28;20035;-75
2021/08/25 06:54:04;;;;;;;12.43;9.65;;;;;;;22.32;42.83;93687.94;4975732;28;20088;-75
2021/08/25 06:56:29;;;;;;;16.13;10.10;;;;;;;22.24;43.27;93704.19;4977706;28;20445;-76
2021/08/25 06:58:55;;;;;;;20.13;12.07;;;;;;;22.43;43.25;93715.78;4975233;28;20030;-75
2021/08/25 07:01:21;;;;;;;13.68;10.88;;;;;;;22.55;44.21;93713.44;4977501;28;20030;-75
2021/08/25 07:03:47;;;;;;;12.68;11.32;;;;;;;22.33;44.13;93711.16;4975473;28;20121;-76
2021/08/25 07:06:13;;;;;;;16.13;11.80;;;;;;;22.28;43.11;93712.34;4975940;28;20229;-75
2021/08/25 07:08:38;;;;;;;15.15;11.65;;;;;;;22.51;43.89;93723.50;4975781;28;20047;-75
2021/08/25 07:11:04;;;;;;;17.42;11.48;;;;;;;22.05;42.96;93709.97;4977906;28;20026;-75
2021/08/25 07:13:29;;;;;;;14.52;10.82;;;;;;;22.49;42.82;93731.25;4975663;28;20185;-75
2021/08/25 07:15:55;;;;;;;17.77;10.95;;;;;;;22.58;42.97;93728.94;4978029;28;20401;-75
2021/08/25 07:18:20;;;;;;;14.48;11.05;;;;;;;22.53;43.06;93715.00;4973390;28;20041;-76
2021/08/25 07:20:46;;;;;;;17.50;11.35;;;;;;;22.44;42.82;93717.34;4977581;28;21130;-75
2021/08/25 07:23:12;;;;;;;11.70;10.48;;;;;;;22.53;44.29;93704.94;4973651;28;20065;-73
2021/08/25 07:25:37;;;;;;;10.40;9.20;;;;;;;22.72;42.68;93685.50;4975772;28;20129;-75
2021/08/25 07:28:03;;;;;;;17.95;12.55;;;;;;;22.82;42.39;93704.84;4978659;28;20133;-75
2021/08/25 07:30:28;;;;;;;17.60;12.15;;;;;;;22.77;43.51;93680.84;4970888;28;20069;-75
2021/08/25 07:32:53;;;;;;;20.27;13.00;;;;;;;22.79;42.96;93708.31;4976734;28;20529;-75
2021/08/25 07:35:19;;;;;;;16.60;11.85;;;;;;;22.90;42.21;93690.88;4977720;28;20142;-75
2021/08/25 07:37:44;;;;;;;20.83;12.57;;;;;;;23.10;42.72;93702.81;4976744;28;20044;-75
2021/08/25 07:40:10;;;;;;;13.80;11.05;;;;;;;23.21;41.79;93710.13;4973087;28;20117;-75
2021/08/25 07:42:36;;;;;;;11.63;9.02;;;;;;;23.17;40.87;93705.47;4974601;28;20042;-75
2021/08/25 07:45:02;;;;;;;18.42;11.13;;;;;;;23.10;41.48;93694.66;4977950;28;20038;-75
2021/08/25 07:47:27;;;;;;;17.50;13.52;;;;;;;23.20;42.78;93708.56;4977282;28;20118;-75
2021/08/25 07:49:53;;;;;;;17.60;11.82;;;;;;;23.28;42.87;93710.06;4976427;28;20495;-75
2021/08/25 07:52:18;;;;;;;16.75;11.60;;;;;;;23.15;42.24;93691.53;4974917;28;20041;-75
2021/08/25 07:54:44;;;;;;;23.27;11.68;;;;;;;23.41;42.17;93700.31;4977621;28;20047;-75
2021/08/25 07:57:09;;;;;;;16.42;14.07;;;;;;;23.52;41.66;93703.75;4973939;28;20038;-75
2021/08/25 07:59:34;;;;;;;19.48;12.77;;;;;;;23.36;41.53;93700.75;4972016;28;20038;-75
2021/08/25 08:02:00;;;;;;;22.88;16.63;;;;;;;23.34;42.38;93714.69;4971170;28;20037;-75
2021/08/25 08:04:26;;;;;;;26.25;18.80;;;;;;;23.28;43.06;93681.00;4973258;28;20026;-75
2021/08/25 08:06:52;;;;;;;27.13;16.52;;;;;;;23.55;43.00;93706.47;4974520;28;20038;-76
2021/08/25 08:09:18;;;;;;;24.85;16.77;;;;;;;23.53;43.12;93691.72;4970173;28;20046;-77
2021/08/25 08:11:43;;;;;;;24.80;18.00;;;;;;;23.63;43.10;93698.25;4974059;28;20161;-76
2021/08/25 08:14:09;;;;;;;25.05;18.55;;;;;;;23.65;42.82;93680.41;4973921;28;20576;-75
2021/08/25 08:16:35;;;;;;;19.83;16.25;;;;;;;23.56;42.62;93689.00;4970924;28;20034;-75
2021/08/25 08:19:17;;;;;;;22.55;18.35;;;;;;;23.63;42.18;93671.13;4971650;28;20413;-74
2021/08/25 08:21:42;;;;;;;30.52;20.30;;;;;;;23.86;43.25;93684.91;4974196;28;20046;-75
2021/08/25 08:24:07;;;;;;;26.50;18.83;;;;;;;23.89;42.96;93687.59;4974585;28;20038;-76
2021/08/25 08:26:33;;;;;;;32.47;20.63;;;;;;;24.02;43.03;93698.75;4972986;28;20050;-75
2021/08/25 08:28:59;;;;;;;30.58;22.65;;;;;;;23.97;42.62;93691.78;4975224;28;20381;-75
2021/08/25 08:31:26;;;;;;;28.40;21.45;;;;;;;24.06;42.73;93701.41;4973470;28;20034;-76
2021/08/25 08:33:51;;;;;;;28.42;22.48;;;;;;;24.07;42.44;93681.22;4977198;28;20678;-76
2021/08/25 08:36:17;;;;;;;25.10;21.13;;;;;;;24.10;43.56;93689.34;4973693;28;20205;-76
2021/08/25 08:38:42;;;;;;;28.33;21.48;;;;;;;24.14;42.64;93673.84;4975000;28;20031;-75
2021/08/25 08:41:08;;;;;;;32.70;21.92;;;;;;;24.21;42.69;93679.19;4973621;28;20684;-76
2021/08/25 08:43:33;;;;;;;30.52;24.23;;;;;;;24.25;42.90;93690.78;4974019;28;20033;-76
2021/08/25 08:45:59;;;;;;;28.65;22.25;;;;;;;24.26;43.62;93686.13;4970575;28;20433;-76
2021/08/25 08:48:25;;;;;;;28.30;21.90;;;;;;;24.13;43.22;93698.69;4973118;28;20030;-75
2021/08/25 08:50:51;;;;;;;30.70;22.60;;;;;;;24.15;43.19;93688.94;4972894;28;20089;-75
2021/08/25 08:53:17;;;;;;;30.20;23.23;;;;;;;24.24;42.14;93681.13;4972504;28;20050;-76
2021/08/25 08:55:45;;;;;;;26.15;21.13;;;;;;;24.43;42.22;93693.34;4974343;28;20104;-75
2021/08/25 08:58:10;;;;;;;32.45;20.20;;;;;;;24.35;42.32;93694.59;4970854;28;20153;-77
2021/08/25 09:00:35;;;;;;;28.17;19.95;;;;;;;24.20;42.68;93685.03;4972916;28;20046;-75
2021/08/25 09:03:02;;;;;;;31.48;21.40;;;;;;;24.08;43.36;93688.22;4974728;28;20068;-76
2021/08/25 09:05:34;;;;;;;27.80;20.13;;;;;;;24.04;44.09;93699.13;4971663;28;20038;-76
2021/08/25 09:08:00;;;;;;;32.67;21.13;;;;;;;24.02;44.10;93699.50;4975279;28;20107;-75
2021/08/25 09:10:31;;;;;;;25.02;21.23;;;;;;;23.98;43.81;93687.91;4972041;28;20050;-75
2021/08/25 09:13:01;;;;;;;25.40;21.02;;;;;;;23.99;44.59;93694.91;4990177;28;20148;-75
2021/08/25 09:15:30;;;;;;;25.50;19.50;;;;;;;24.19;44.18;93697.09;4974583;28;20038;-75
2021/08/25 09:18:13;;;;;;;23.98;19.38;;;;;;;24.40;43.39;93691.44;4970444;28;20502;-75
2021/08/25 09:20:41;;;;;;;24.75;20.48;;;;;;;24.52;42.76;93690.16;4966816;28;20557;-76
2021/08/25 09:23:18;;;;;;;23.48;19.88;;;;;;;24.42;43.66;93681.72;4958583;28;20029;-75
2021/08/25 09:25:52;;;;;;;22.08;18.63;;;;;;;24.54;43.67;93694.00;4991134;28;20038;-75
2021/08/25 09:28:24;;;;;;;30.33;19.10;;;;;;;24.55;43.41;93692.81;4973691;28;20058;-75
2021/08/25 09:31:00;;;;;;;24.45;18.73;;;;;;;24.69;42.73;93687.22;4973991;28;20053;-75
2021/08/25 09:33:34;;;;;;;25.42;19.23;;;;;;;24.63;42.64;93672.56;4990052;28;20038;-75
2021/08/25 09:36:03;;;;;;;27.63;18.67;;;;;;;24.75;42.90;93688.38;4973886;28;20034;-76
2021/08/25 09:38:30;;;;;;;20.73;18.50;;;;;;;24.83;42.81;93691.78;4972252;28;20034;-75
2021/08/25 09:40:59;;;;;;;30.00;17.60;;;;;;;24.85;41.96;93679.31;4974576;28;20548;-75
2021/08/25 09:43:32;;;;;;;21.45;17.70;;;;;;;24.58;42.04;93680.38;4973056;28;20030;-75
2021/08/25 09:46:05;;;;;;;22.88;17.75;;;;;;;24.62;41.39;93698.19;4968295;28;20046;-75
2021/08/25 09:48:52;;;;;;;19.75;17.33;;;;;;;24.55;42.01;93703.69;4971591;28;20050;-75
2021/08/25 09:51:25;;;;;;;22.02;18.05;;;;;;;24.57;42.17;93700.59;4973598;28;20500;-76
2021/08/25 09:54:03;;;;;;;28.75;18.65;;;;;;;24.39;42.01;93689.91;4972622;28;20088;-75
2021/08/25 09:56:34;;;;;;;25.15;19.65;;;;;;;24.34;42.42;93693.06;4972345;28;20042;-76
2021/08/25 09:59:02;;;;;;;28.88;19.77;;;;;;;24.43;42.10;93693.34;4966335;28;20560;-75
2021/08/25 10:01:27;;;;;;;23.13;17.83;;;;;;;24.48;42.53;93692.16;4976334;28;20030;-76
2021/08/25 10:03:54;;;;;;;22.98;17.73;;;;;;;24.52;42.22;93688.22;4969948;28;20038;-75
2021/08/25 10:06:21;;;;;;;23.23;17.05;;;;;;;24.55;42.30;93679.22;4976113;28;20114;-75
2021/08/25 10:08:48;;;;;;;21.77;17.40;;;;;;;24.37;42.74;93690.31;4973290;28;20042;-76
2021/08/25 10:11:16;;;;;;;41.60;21.30;;;;;;;24.49;45.45;93693.69;4969913;28;20390;-76
2021/08/25 10:13:42;;;;;;;29.98;19.83;;;;;;;24.42;47.12;93670.84;4991602;28;20052;-77
2021/08/25 10:16:12;;;;;;;28.58;19.55;;;;;;;24.53;48.07;93684.31;4972697;28;20477;-75
2021/08/25 10:18:40;;;;;;;30.45;20.10;;;;;;;24.52;48.75;93687.44;4972174;28;20691;-76
2021/08/25 10:21:29;;;;;;;27.02;20.63;;;;;;;24.47;49.18;93696.03;4972788;28;20034;-75
2021/08/25 10:23:58;;;;;;;29.33;20.90;;;;;;;24.39;50.91;93684.47;4969263;28;20065;-76
2021/08/25 10:26:24;;;;;;;32.20;22.05;;;;;;;24.00;54.19;93671.97;4969855;28;21030;-76
2021/08/25 10:28:58;;;;;;;29.08;21.40;;;;;;;24.15;53.66;93669.94;4969505;28;20118;-76
2021/08/25 10:31:25;;;;;;;31.70;21.33;;;;;;;24.03;54.49;93651.41;4975081;28;20057;-77
2021/08/25 10:34:21;;;;;;;31.00;20.67;;;;;;;24.15;59.49;93669.19;4975060;28;20037;-76
2021/08/25 10:36:47;;;;;;;30.38;22.27;;;;;;;24.17;56.66;93662.16;4963398;28;20050;-75
2021/08/25 10:39:32;;;;;;;32.28;21.33;;;;;;;24.32;52.58;93668.22;4976557;28;20141;-76
2021/08/25 10:41:59;;;;;;;26.27;20.83;;;;;;;24.06;51.13;93655.25;4972718;28;20054;-75
2021/08/25 10:44:36;;;;;;;26.63;19.58;;;;;;;23.86;49.09;93658.50;4977794;28;20030;-76
2021/08/25 10:47:03;;;;;;;25.05;20.65;;;;;;;23.76;50.16;93651.22;4969884;28;20517;-75
2021/08/25 10:49:37;;;;;;;23.40;19.88;;;;;;;23.88;49.19;93637.16;4974573;28;20587;-75
2021/08/25 10:52:25;;;;;;;27.30;20.45;;;;;;;23.94;49.63;93643.72;4972982;28;20081;-75
2021/08/25 10:54:51;;;;;;;28.88;20.02;;;;;;;24.01;49.50;93640.91;4961314;28;20034;-75
2021/08/25 10:57:21;;;;;;;24.08;20.25;;;;;;;24.08;48.96;93636.59;4973231;28;20124;-75
2021/08/25 10:59:49;;;;;;;25.75;20.98;;;;;;;24.00;48.04;93636.66;4971406;28;20038;-75
2021/08/25 11:02:15;;;;;;;23.20;19.83;;;;;;;24.14;47.01;93640.47;4976937;28;20451;-75
2021/08/25 11:04:40;;;;;;;25.63;19.17;;;;;;;23.86;46.73;93620.50;4976713;28;20871;-75
2021/08/25 11:07:11;;;;;;;27.00;19.05;;;;;;;24.04;46.02;93616.84;4971385;28;20077;-75
2021/08/25 11:09:44;;;;;;;20.08;17.63;;;;;;;24.19;46.40;93615.56;4973431;28;20210;-75
2021/08/25 11:12:13;;;;;;;23.17;18.88;;;;;;;24.14;45.50;93637.75;4976482;28;20061;-75
2021/08/25 11:14:46;;;;;;;24.92;18.48;;;;;;;24.36;45.26;93620.03;4975864;28;20043;-75